Bleakwood, Texas
Current Conditions -  °F | °C
As of 10:15 AM on Saturday 22 Nov 2014 (Local Time) from KJAS Reporting Station
Clear Clear  
Wind Chill: 65°   Ceiling: Unl
Heat Index: 65°   Visibility: 10mi
Dew Point: 57°   Wind: 10mph
Humidity: 76%   Direction: 110°ESE
Pressure: 30.14"   Gusts: NA
Location:  30.7133°N, 93.9985°W
Report Text: KJAS 221615Z AUTO 11009KT 10SM CLR 18/14 A3014 RMK AO2 T01830140
Loading
Personal Weather Stations






























Interactive Weather Map New forecast layout! Learn more

10-Day Weather Forecast

Advertisements
Track Severe Weather on mobile